Time;durP1;ratioP1;P1;durP2;ratioP2;P2;SDS_P1;SDS_P2;PMS_P1;PMS_P2;Temp;Humidity;BMP_temperature;BMP_pressure;BME280_temperature;BME280_humidity;BME280_pressure;Samples;Min_cycle;Max_cycle;Signal;HPM_P1;HPM_P2
2022/06/02 00:00:06;;;;;;;3.70;1.73;;;24.30;46.90;;;;;;5015148;28;20423;-81
2022/06/02 00:02:39;;;;;;;3.37;1.80;;;24.30;47.50;;;;;;5012033;28;20466;-81
2022/06/02 00:05:13;;;;;;;5.77;1.93;;;24.30;46.90;;;;;;5007975;28;20479;-81
2022/06/02 00:07:49;;;;;;;2.50;1.87;;;24.20;46.80;;;;;;5013809;28;20551;-81
2022/06/02 00:10:22;;;;;;;1.70;1.60;;;24.20;46.90;;;;;;5013038;28;20479;-80
2022/06/02 00:12:53;;;;;;;1.83;1.73;;;24.20;46.70;;;;;;5017640;28;20530;-81
2022/06/02 00:15:23;;;;;;;2.53;2.30;;;24.20;46.70;;;;;;5011886;28;20461;-80
2022/06/02 00:17:56;;;;;;;1.80;1.70;;;24.10;46.80;;;;;;5010612;28;20445;-81
2022/06/02 00:20:29;;;;;;;1.80;1.70;;;24.10;46.70;;;;;;5011722;28;20461;-81
2022/06/02 00:23:22;;;;;;;6.20;1.80;;;24.10;46.70;;;;;;5010994;28;20494;-81
2022/06/02 00:25:53;;;;;;;2.10;2.00;;;24.10;46.80;;;;;;5002515;28;20505;-81
2022/06/02 00:28:26;;;;;;;2.77;2.10;;;24.10;46.80;;;;;;5023578;28;20478;-81
2022/06/02 00:30:58;;;;;;;1.77;1.67;;;24.10;46.90;;;;;;5022978;28;20462;-80
2022/06/02 00:33:28;;;;;;;2.10;1.83;;;24.10;46.80;;;;;;5023384;28;20406;-80
2022/06/02 00:47:30;;;;;;;2.00;1.90;;;23.90;46.80;;;;;;5020522;28;20480;-81
2022/06/02 01:50:56;;;;;;;1.80;1.80;;;23.40;47.10;;;;;;5017278;28;20491;-79
2022/06/02 01:53:31;;;;;;;1.90;1.80;;;23.50;47.20;;;;;;5017870;28;20426;-81
2022/06/02 01:56:09;;;;;;;1.80;1.70;;;23.40;47.10;;;;;;5012219;28;20440;-80
2022/06/02 01:58:53;;;;;;;2.20;2.10;;;23.40;47.00;;;;;;5020351;28;20440;-80
2022/06/02 02:01:26;;;;;;;1.70;1.60;;;23.50;47.10;;;;;;5020201;28;20464;-81
2022/06/02 02:03:59;;;;;;;2.30;2.10;;;23.40;47.00;;;;;;5020229;28;20444;-81
2022/06/02 02:06:35;;;;;;;5.03;1.93;;;23.50;46.90;;;;;;5019378;28;20444;-81
2022/06/02 02:09:12;;;;;;;3.77;1.90;;;23.50;46.90;;;;;;5027374;28;20471;-81
2022/06/02 02:11:49;;;;;;;2.40;1.80;;;23.50;46.90;;;;;;5036482;28;20478;-81
2022/06/02 02:14:41;;;;;;;1.90;1.60;;;23.40;46.90;;;;;;5040573;28;20475;-80
2022/06/02 02:17:18;;;;;;;1.90;1.80;;;23.40;46.90;;;;;;5040009;28;20467;-81
2022/06/02 02:19:49;;;;;;;2.07;1.97;;;23.40;46.90;;;;;;5041537;28;20542;-81
2022/06/02 02:22:22;;;;;;;2.13;2.03;;;23.40;46.80;;;;;;5043942;28;20493;-81
2022/06/02 02:25:00;;;;;;;2.10;2.00;;;23.40;46.80;;;;;;5040925;28;20462;-81
2022/06/02 02:27:31;;;;;;;2.30;2.20;;;23.40;46.90;;;;;;5023394;28;20539;-81
2022/06/02 02:30:03;;;;;;;2.17;1.97;;;23.40;46.80;;;;;;5028409;28;20439;-81
2022/06/02 02:32:36;;;;;;;1.73;1.63;;;23.40;46.80;;;;;;5026408;28;20472;-81
2022/06/02 02:35:08;;;;;;;2.00;1.90;;;23.40;46.80;;;;;;5027315;28;20468;-80
2022/06/02 02:37:39;;;;;;;2.23;1.90;;;23.40;46.80;;;;;;5026545;28;20419;-80
2022/06/02 02:40:24;;;;;;;1.80;1.70;;;23.40;46.70;;;;;;5026400;28;20448;-81
2022/06/02 02:42:55;;;;;;;1.70;1.60;;;23.40;46.80;;;;;;5032804;28;20455;-80
2022/06/02 02:45:34;;;;;;;2.20;2.00;;;23.40;46.80;;;;;;5041207;28;20944;-80
2022/06/02 02:48:08;;;;;;;2.27;2.17;;;23.40;46.80;;;;;;5046398;28;20460;-80
2022/06/02 02:50:39;;;;;;;1.80;1.70;;;23.40;46.70;;;;;;5045801;28;21085;-81
2022/06/02 02:53:13;;;;;;;4.07;2.03;;;23.30;46.70;;;;;;5045826;28;20822;-79
2022/06/02 02:55:45;;;;;;;1.80;1.70;;;23.30;46.80;;;;;;5045982;28;20469;-81
2022/06/02 02:58:18;;;;;;;2.07;1.93;;;23.40;46.90;;;;;;5039848;28;20451;-81
2022/06/02 03:00:47;;;;;;;1.67;1.57;;;23.30;46.80;;;;;;5037556;28;20459;-81
2022/06/02 03:03:18;;;;;;;1.60;1.60;;;23.30;46.70;;;;;;5046788;28;20447;-81
2022/06/02 03:05:53;;;;;;;1.60;1.60;;;23.30;46.60;;;;;;5043677;28;20427;-80
2022/06/02 03:08:35;;;;;;;2.23;2.13;;;23.30;46.60;;;;;;5047420;28;20418;-81
2022/06/02 03:11:08;;;;;;;2.20;2.10;;;23.30;46.70;;;;;;5046967;28;20455;-82
2022/06/02 03:13:40;;;;;;;1.70;1.70;;;23.30;46.80;;;;;;5037446;28;20510;-81
2022/06/02 03:16:08;;;;;;;1.80;1.70;;;23.30;46.90;;;;;;5038233;28;20454;-80
2022/06/02 03:18:43;;;;;;;1.80;1.70;;;23.30;46.70;;;;;;5046137;28;20474;-81
2022/06/02 03:21:16;;;;;;;1.67;1.57;;;23.30;46.80;;;;;;5046154;28;20473;-81
2022/06/02 03:24:04;;;;;;;1.93;1.83;;;23.30;46.80;;;;;;5046133;28;20439;-80
2022/06/02 03:26:40;;;;;;;2.10;2.00;;;23.30;46.80;;;;;;5044212;28;20486;-81
2022/06/02 03:29:22;;;;;;;2.60;2.20;;;23.30;46.70;;;;;;5044680;28;20447;-82
2022/06/02 03:32:08;;;;;;;5.80;2.43;;;23.20;46.50;;;;;;5027088;28;21018;-80
2022/06/02 03:34:39;;;;;;;2.23;2.03;;;23.20;46.70;;;;;;5041448;28;20493;-80
2022/06/02 03:37:32;;;;;;;2.03;1.93;;;23.30;46.80;;;;;;5045959;28;20470;-80
2022/06/02 03:40:11;;;;;;;1.77;1.67;;;23.30;46.70;;;;;;5042570;28;20859;-81
2022/06/02 03:42:43;;;;;;;1.90;1.80;;;23.20;46.80;;;;;;5044412;28;20463;-81
2022/06/02 03:45:25;;;;;;;1.90;1.80;;;23.20;46.70;;;;;;5044972;28;20443;-81
2022/06/02 03:48:26;;;;;;;1.93;1.83;;;23.20;46.70;;;;;;5034493;28;20447;-81
2022/06/02 03:51:03;;;;;;;1.63;1.53;;;23.20;46.80;;;;;;5023343;28;20473;-81
2022/06/02 03:53:58;;;;;;;2.00;1.90;;;23.20;46.60;;;;;;5023705;28;20543;-80
2022/06/02 03:56:34;;;;;;;2.07;1.93;;;23.20;46.60;;;;;;5023923;28;20468;-79
2022/06/02 03:59:13;;;;;;;2.23;2.13;;;23.20;46.60;;;;;;5024537;28;21006;-80
2022/06/02 04:01:43;;;;;;;1.93;1.83;;;23.20;46.70;;;;;;5024117;28;20479;-81
2022/06/02 04:04:19;;;;;;;2.00;1.80;;;23.20;46.80;;;;;;5023014;28;20458;-81
2022/06/02 04:06:57;;;;;;;1.80;1.70;;;23.20;46.60;;;;;;5034365;28;20463;-81
2022/06/02 04:09:32;;;;;;;1.77;1.67;;;23.20;46.50;;;;;;5043757;28;20497;-80
2022/06/02 04:14:57;;;;;;;1.80;1.70;;;23.20;46.60;;;;;;5044845;28;20463;-81
2022/06/02 04:17:28;;;;;;;1.83;1.73;;;23.20;46.40;;;;;;5044758;28;20443;-80
2022/06/02 04:20:35;;;;;;;1.90;1.80;;;23.20;46.40;;;;;;5037546;28;20467;-81
2022/06/02 04:23:26;;;;;;;2.07;1.97;;;23.20;46.50;;;;;;5033475;28;20410;-81
2022/06/02 04:25:57;;;;;;;1.83;1.73;;;23.20;46.40;;;;;;5041379;28;20444;-81
2022/06/02 04:28:31;;;;;;;2.00;1.90;;;23.20;46.50;;;;;;5044040;28;20461;-80
2022/06/02 04:31:07;;;;;;;1.90;1.80;;;23.20;46.40;;;;;;5038466;28;20554;-79
2022/06/02 04:33:36;;;;;;;1.37;1.37;;;23.20;46.30;;;;;;5042464;28;20493;-82
2022/06/02 04:36:08;;;;;;;2.00;1.90;;;23.20;46.40;;;;;;5038894;28;20467;-80
2022/06/02 04:38:42;;;;;;;1.87;1.53;;;23.20;46.30;;;;;;5035786;28;20406;-81
2022/06/02 04:41:12;;;;;;;1.70;1.70;;;23.20;46.40;;;;;;5046279;28;20510;-79
2022/06/02 04:43:45;;;;;;;1.90;1.80;;;23.30;46.40;;;;;;5045437;28;20410;-79
2022/06/02 04:46:21;;;;;;;1.60;1.60;;;23.20;46.30;;;;;;5042822;28;20435;-81
2022/06/02 04:48:54;;;;;;;1.83;1.73;;;23.30;46.30;;;;;;5043513;28;20458;-80
2022/06/02 04:51:25;;;;;;;1.70;1.60;;;23.30;46.30;;;;;;5041412;28;20467;-81
2022/06/02 04:53:58;;;;;;;2.00;1.90;;;23.30;46.30;;;;;;5034353;28;20532;-81
2022/06/02 04:56:29;;;;;;;1.63;1.50;;;23.30;46.30;;;;;;5042893;28;20478;-80
2022/06/02 04:59:03;;;;;;;2.97;1.83;;;23.20;46.20;;;;;;5042507;28;20449;-79
2022/06/02 05:01:40;;;;;;;1.90;1.80;;;23.30;46.40;;;;;;5043831;28;20467;-80
2022/06/02 05:04:22;;;;;;;1.73;1.50;;;23.30;46.20;;;;;;5044342;28;20443;-81
2022/06/02 05:06:52;;;;;;;1.63;1.53;;;23.30;46.20;;;;;;5043616;28;20459;-80
2022/06/02 05:09:23;;;;;;;1.73;1.63;;;23.30;46.30;;;;;;5033677;28;20456;-81
2022/06/02 05:11:57;;;;;;;1.60;1.60;;;23.30;46.30;;;;;;5041988;28;20459;-81
2022/06/02 05:14:31;;;;;;;1.80;1.70;;;23.30;46.10;;;;;;5043152;28;20495;-81
2022/06/02 05:17:08;;;;;;;1.97;1.73;;;23.30;46.20;;;;;;5041576;28;20455;-79
2022/06/02 05:19:43;;;;;;;1.60;1.50;;;23.30;46.30;;;;;;5043773;28;20500;-81
2022/06/02 05:22:29;;;;;;;1.50;1.40;;;23.30;46.10;;;;;;5044184;28;20483;-81
2022/06/02 05:25:30;;;;;;;1.90;1.83;;;23.30;46.10;;;;;;5034710;28;20443;-81
2022/06/02 05:28:39;;;;;;;1.70;1.60;;;23.40;46.10;;;;;;5000735;28;20440;-80
2022/06/02 05:31:36;;;;;;;1.70;1.60;;;23.30;46.10;;;;;;5003747;28;20509;-80
2022/06/02 05:34:15;;;;;;;2.20;2.10;;;23.30;46.10;;;;;;5003073;28;20556;-80
2022/06/02 05:36:49;;;;;;;1.73;1.70;;;23.30;46.20;;;;;;5004687;28;20444;-80
2022/06/02 05:39:43;;;;;;;1.77;1.67;;;23.40;46.20;;;;;;5002896;28;20499;-80
2022/06/02 05:46:21;;;;;;;1.73;1.50;;;23.40;46.00;;;;;;4943341;28;20455;-78
2022/06/02 05:48:59;;;;;;;1.80;1.70;;;23.40;46.20;;;;;;5000330;28;20441;-80
2022/06/02 05:51:30;;;;;;;1.73;1.63;;;23.40;46.10;;;;;;5001664;28;20461;-80
2022/06/02 05:54:15;;;;;;;1.37;1.37;;;23.40;46.00;;;;;;5001915;28;20523;-79
2022/06/02 05:56:48;;;;;;;1.97;1.87;;;23.40;46.60;;;;;;5009219;28;20531;-81
2022/06/02 05:59:58;;;;;;;1.83;1.73;;;23.40;46.10;;;;;;5030914;28;20436;-80
2022/06/02 06:02:46;;;;;;;2.10;1.90;;;23.40;46.00;;;;;;4997910;28;20536;-80
2022/06/02 06:05:17;;;;;;;1.87;1.70;;;23.40;45.90;;;;;;5022394;28;20434;-80
2022/06/02 06:07:59;;;;;;;1.70;1.60;;;23.40;46.10;;;;;;5022623;28;20515;-81
2022/06/02 06:10:30;;;;;;;2.00;1.90;;;23.50;46.00;;;;;;5021312;28;20511;-80
2022/06/02 06:13:05;;;;;;;1.47;1.47;;;23.50;46.00;;;;;;5022105;28;20482;-80
2022/06/02 06:15:40;;;;;;;1.80;1.70;;;23.50;46.00;;;;;;5029351;28;20534;-80
2022/06/02 06:18:15;;;;;;;2.63;1.63;;;23.50;45.80;;;;;;5035957;28;20436;-80
2022/06/02 06:20:52;;;;;;;1.50;1.50;;;23.50;45.90;;;;;;5041410;28;20465;-80
2022/06/02 06:38:27;;;;;;;1.60;1.50;;;23.60;45.90;;;;;;5017611;28;20513;-80
2022/06/02 06:41:16;;;;;;;1.80;1.70;;;23.60;46.00;;;;;;5020861;28;20495;-80
2022/06/02 06:43:58;;;;;;;1.60;1.50;;;23.70;45.80;;;;;;5030185;28;20440;-81
2022/06/02 06:46:30;;;;;;;1.50;1.40;;;23.70;45.60;;;;;;5021841;28;20456;-81
2022/06/02 06:48:59;;;;;;;1.80;1.70;;;23.80;45.50;;;;;;5022053;28;20427;-80
2022/06/02 06:51:35;;;;;;;1.67;1.57;;;23.80;45.70;;;;;;5022027;28;20443;-79
2022/06/02 06:54:08;;;;;;;1.90;1.67;;;23.90;45.40;;;;;;5005330;28;20443;-79
2022/06/02 06:56:40;;;;;;;2.27;1.83;;;23.90;45.30;;;;;;5013763;28;20427;-80
2022/06/02 06:59:17;;;;;;;1.80;1.70;;;24.00;45.30;;;;;;5029398;28;20444;-80
2022/06/02 07:01:49;;;;;;;1.60;1.50;;;24.00;45.20;;;;;;5015111;28;20491;-80
2022/06/02 07:04:28;;;;;;;1.50;1.50;;;24.10;45.80;;;;;;5022177;28;20589;-81
2022/06/02 07:06:58;;;;;;;1.70;1.60;;;24.10;45.20;;;;;;5022650;28;20470;-81
2022/06/02 07:09:32;;;;;;;1.67;1.57;;;24.10;45.00;;;;;;5014691;28;20452;-82
2022/06/02 07:14:50;;;;;;;2.60;1.40;;;24.20;45.10;;;;;;5020049;28;20443;-80
2022/06/02 07:17:21;;;;;;;1.40;1.40;;;24.30;44.80;;;;;;5023710;28;20517;-80
2022/06/02 07:19:52;;;;;;;1.70;1.60;;;24.40;44.90;;;;;;5022951;28;20505;-81
2022/06/02 07:22:24;;;;;;;1.93;1.83;;;24.40;44.70;;;;;;5025280;28;20475;-81
2022/06/02 07:24:56;;;;;;;1.70;1.50;;;24.50;44.60;;;;;;5025337;28;20450;-81
2022/06/02 07:27:28;;;;;;;1.60;1.60;;;24.60;44.30;;;;;;5023350;28;20452;-80
2022/06/02 07:30:10;;;;;;;1.80;1.70;;;24.70;44.40;;;;;;5035525;28;20454;-81
2022/06/02 07:32:51;;;;;;;2.70;1.50;;;24.80;44.30;;;;;;5028736;28;20461;-80
2022/06/02 07:35:45;;;;;;;1.50;1.50;;;24.80;44.10;;;;;;5025210;28;20475;-80
2022/06/02 07:38:19;;;;;;;1.90;1.80;;;24.80;44.10;;;;;;5030451;28;20426;-80
2022/06/02 07:40:57;;;;;;;1.57;1.57;;;25.00;44.20;;;;;;5026523;28;20445;-80
2022/06/02 07:43:38;;;;;;;1.70;1.60;;;25.10;44.00;;;;;;5009370;28;20443;-80
2022/06/02 07:46:17;;;;;;;3.33;2.63;;;25.00;43.70;;;;;;5029393;28;20421;-81
2022/06/02 07:49:11;;;;;;;3.10;2.70;;;24.60;40.60;;;;;;5037691;28;20466;-80
2022/06/02 07:51:41;;;;;;;3.03;2.80;;;23.50;43.60;;;;;;5009103;28;20518;-78
2022/06/02 07:54:18;;;;;;;2.20;2.00;;;23.10;43.80;;;;;;5015098;28;20535;-80
2022/06/02 07:56:54;;;;;;;3.23;2.00;;;22.60;43.20;;;;;;5002786;28;20427;-80
2022/06/02 07:59:26;;;;;;;4.60;2.40;;;22.50;43.90;;;;;;5012421;28;20479;-78
2022/06/02 08:02:11;;;;;;;3.30;2.03;;;21.10;44.20;;;;;;5019697;28;20479;-79
2022/06/02 08:04:44;;;;;;;5.57;3.10;;;20.90;47.40;;;;;;4999468;28;20528;-77
2022/06/02 08:07:16;;;;;;;4.77;2.20;;;21.30;46.60;;;;;;5016084;28;20446;-82
2022/06/02 08:09:48;;;;;;;3.57;2.03;;;20.80;45.60;;;;;;5016674;28;20527;-80
2022/06/02 08:12:22;;;;;;;4.53;2.47;;;20.70;46.50;;;;;;5026615;28;20538;-82
2022/06/02 08:15:06;;;;;;;1.90;1.80;;;20.70;46.40;;;;;;5021058;28;20473;-84
2022/06/02 08:17:37;;;;;;;2.53;2.33;;;20.90;47.50;;;;;;5035730;28;20447;-84
2022/06/02 08:20:17;;;;;;;2.50;1.67;;;20.80;45.20;;;;;;5029771;28;20440;-82
2022/06/02 08:22:50;;;;;;;2.50;1.93;;;20.10;46.60;;;;;;5008821;28;20445;-82
2022/06/02 08:25:24;;;;;;;6.70;2.17;;;20.00;46.80;;;;;;5000707;28;20449;-84
2022/06/02 08:28:19;;;;;;;5.43;3.43;;;20.00;47.10;;;;;;5019626;28;20454;-84
2022/06/02 08:30:50;;;;;;;4.03;2.60;;;20.00;47.60;;;;;;5028230;28;20476;-80
2022/06/02 08:33:39;;;;;;;2.07;1.90;;;20.30;47.60;;;;;;5021480;28;20449;-81
2022/06/02 08:36:13;;;;;;;3.43;3.13;;;20.40;46.80;;;;;;5017095;28;20476;-84
2022/06/02 08:39:02;;;;;;;6.60;4.37;;;20.50;46.90;;;;;;5018682;28;20442;-84
2022/06/02 08:42:17;;;;;;;5.07;3.67;;;21.10;46.60;;;;;;5018074;28;20514;-82
2022/06/02 08:45:19;;;;;;;6.47;3.23;;;21.10;46.40;;;;;;4961737;28;20444;-83
2022/06/02 08:48:14;;;;;;;3.83;2.50;;;21.20;46.00;;;;;;5029542;28;20447;-82
2022/06/02 08:51:13;;;;;;;3.33;2.40;;;21.30;46.70;;;;;;5037866;28;20490;-84
2022/06/02 08:54:26;;;;;;;2.40;2.30;;;21.70;47.00;;;;;;5040791;28;20463;-82
2022/06/02 08:57:04;;;;;;;4.57;4.03;;;21.90;44.80;;;;;;5026928;28;20441;-83
2022/06/02 09:00:01;;;;;;;5.13;3.27;;;21.40;45.70;;;;;;5012256;28;20426;-82
2022/06/02 09:02:47;;;;;;;5.23;2.70;;;21.20;46.30;;;;;;5020217;28;20484;-80
2022/06/02 09:05:55;;;;;;;3.17;2.17;;;21.10;47.40;;;;;;5022590;28;20495;-79
2022/06/02 09:08:55;;;;;;;6.57;2.67;;;22.30;46.80;;;;;;5035544;28;20547;-80
2022/06/02 09:11:30;;;;;;;4.00;2.17;;;23.20;44.90;;;;;;5011666;28;20494;-80
2022/06/02 09:14:30;;;;;;;5.83;2.30;;;23.90;44.10;;;;;;5022136;28;20534;-81
2022/06/02 09:16:59;;;;;;;4.80;2.20;;;24.40;43.20;;;;;;5013513;28;20462;-82
2022/06/02 09:19:39;;;;;;;2.27;2.07;;;25.00;42.70;;;;;;5029090;28;20457;-80
2022/06/02 09:22:39;;;;;;;5.50;2.40;;;25.40;41.70;;;;;;5025764;28;20473;-80
2022/06/02 09:25:22;;;;;;;2.10;1.83;;;25.60;41.00;;;;;;5021428;28;20482;-81
2022/06/02 09:28:13;;;;;;;5.13;2.00;;;25.70;40.70;;;;;;5019966;28;20423;-81
2022/06/02 09:30:47;;;;;;;1.73;1.63;;;25.80;40.80;;;;;;5017091;28;20531;-79
2022/06/02 09:33:38;;;;;;;2.27;1.50;;;26.00;40.90;;;;;;5019507;28;20418;-80
2022/06/02 09:36:37;;;;;;;1.90;1.80;;;26.50;40.40;;;;;;5019096;28;20476;-81
2022/06/02 09:39:15;;;;;;;3.50;1.83;;;26.80;39.90;;;;;;5018743;28;20482;-80
2022/06/02 09:41:51;;;;;;;1.60;1.50;;;26.90;39.20;;;;;;5019104;28;20460;-81
2022/06/02 09:44:26;;;;;;;2.30;1.80;;;27.00;39.10;;;;;;5030490;28;20885;-84
2022/06/02 09:47:09;;;;;;;2.20;1.60;;;27.10;39.30;;;;;;5038047;28;20442;-81
2022/06/02 09:49:51;;;;;;;4.00;1.63;;;27.10;38.90;;;;;;5036298;28;20424;-82
2022/06/02 09:52:30;;;;;;;4.10;2.03;;;27.10;38.80;;;;;;5029548;28;20475;-82
2022/06/02 09:55:19;;;;;;;3.73;1.80;;;27.10;38.80;;;;;;5020359;28;20482;-82
2022/06/02 09:57:57;;;;;;;2.83;1.60;;;27.00;39.00;;;;;;5021959;28;20447;-82
2022/06/02 10:00:48;;;;;;;2.87;1.50;;;27.00;39.10;;;;;;5016834;28;20451;-82
2022/06/02 10:03:52;;;;;;;2.50;1.40;;;27.20;39.10;;;;;;5016605;28;20472;-82
2022/06/02 10:06:45;;;;;;;2.87;1.63;;;27.30;39.30;;;;;;5016992;28;20448;-81
2022/06/02 10:09:19;;;;;;;2.40;1.70;;;27.70;40.20;;;;;;5017310;28;20410;-81
2022/06/02 10:11:50;;;;;;;2.70;1.63;;;28.00;39.00;;;;;;5018850;28;20439;-82
2022/06/02 10:14:30;;;;;;;3.27;1.70;;;28.30;38.50;;;;;;5024009;28;20455;-81
2022/06/02 10:17:27;;;;;;;3.73;1.60;;;28.20;38.00;;;;;;5036486;28;20475;-81
2022/06/02 10:20:19;;;;;;;2.40;1.50;;;28.00;38.00;;;;;;5030565;28;20449;-82
2022/06/02 10:22:54;;;;;;;3.87;1.60;;;28.00;38.80;;;;;;5029191;28;20462;-82
2022/06/02 10:25:35;;;;;;;1.83;1.73;;;28.40;38.90;;;;;;5030040;28;20492;-82
2022/06/02 10:28:24;;;;;;;1.50;1.40;;;28.80;38.60;;;;;;5021045;28;20447;-81
2022/06/02 10:31:21;;;;;;;1.63;1.10;;;28.90;37.80;;;;;;5036335;28;20558;-82
2022/06/02 10:34:16;;;;;;;6.10;1.87;;;28.90;37.60;;;;;;5019550;28;20482;-81
2022/06/02 10:37:00;;;;;;;1.50;1.40;;;28.80;37.80;;;;;;5036243;28;20501;-83
2022/06/02 10:39:48;;;;;;;2.97;1.57;;;28.70;37.80;;;;;;5019743;28;20502;-82
2022/06/02 10:42:54;;;;;;;2.50;1.40;;;28.70;37.80;;;;;;5022808;28;20554;-82
2022/06/02 10:45:51;;;;;;;3.80;1.50;;;28.80;37.70;;;;;;4996582;28;20482;-82
2022/06/02 10:49:08;;;;;;;2.63;1.67;;;28.60;37.60;;;;;;5025711;28;20548;-82
2022/06/02 10:52:06;;;;;;;2.60;1.60;;;28.50;37.90;;;;;;5027247;28;20452;-82
2022/06/02 10:55:14;;;;;;;3.73;1.70;;;28.40;38.70;;;;;;5020319;28;20475;-81
2022/06/02 10:58:19;;;;;;;3.27;1.60;;;28.80;39.20;;;;;;5036467;28;20543;-83
2022/06/02 11:01:08;;;;;;;3.27;1.40;;;29.00;37.60;;;;;;5018368;28;20542;-82
2022/06/02 11:03:58;;;;;;;4.67;1.73;;;28.90;37.50;;;;;;5022670;28;20440;-81
2022/06/02 11:07:08;;;;;;;2.20;1.43;;;29.10;37.80;;;;;;5019496;28;20479;-82
2022/06/02 11:10:07;;;;;;;1.47;1.37;;;29.00;37.30;;;;;;5017926;28;20900;-81
2022/06/02 11:12:57;;;;;;;2.20;1.53;;;28.80;37.50;;;;;;5017908;28;20515;-82
2022/06/02 11:15:46;;;;;;;3.70;1.70;;;29.20;38.70;;;;;;5017844;28;20448;-82
2022/06/02 11:18:27;;;;;;;2.70;1.20;;;30.10;38.10;;;;;;5017791;28;20523;-81
2022/06/02 11:21:18;;;;;;;1.47;1.37;;;31.20;36.80;;;;;;5018669;28;20498;-81
2022/06/02 11:24:19;;;;;;;3.70;1.10;;;30.90;35.50;;;;;;5017907;28;20447;-82
2022/06/02 11:27:10;;;;;;;2.50;1.37;;;30.50;35.50;;;;;;5024714;28;20510;-82
2022/06/02 11:30:19;;;;;;;2.10;1.47;;;30.10;36.40;;;;;;5019083;28;20483;-83
2022/06/02 11:33:05;;;;;;;2.10;1.40;;;31.80;36.10;;;;;;5022738;28;20452;-83
2022/06/02 11:35:58;;;;;;;2.00;1.40;;;32.80;35.00;;;;;;5035434;28;20447;-82
2022/06/02 11:39:07;;;;;;;2.30;1.30;;;33.30;34.10;;;;;;5043247;28;20448;-83
2022/06/02 11:41:41;;;;;;;2.10;1.20;;;34.30;33.40;;;;;;4999684;28;20475;-84
2022/06/02 11:44:15;;;;;;;2.40;1.23;;;34.80;32.80;;;;;;5032065;28;20467;-82
2022/06/02 11:47:08;;;;;;;1.60;1.40;;;35.20;32.30;;;;;;5048733;28;20443;-83
2022/06/02 11:50:12;;;;;;;1.77;1.27;;;35.40;32.00;;;;;;5036663;28;20445;-82
2022/06/02 11:52:54;;;;;;;2.07;1.10;;;35.70;31.70;;;;;;4999274;28;20461;-83
2022/06/02 11:55:31;;;;;;;5.07;1.30;;;34.90;31.20;;;;;;5027724;28;20436;-82
2022/06/02 11:58:41;;;;;;;6.13;1.23;;;35.00;31.80;;;;;;5014440;28;20899;-83
2022/06/02 12:01:34;;;;;;;2.27;1.37;;;35.00;32.50;;;;;;5043614;28;20463;-82
2022/06/02 12:04:45;;;;;;;1.83;1.20;;;35.20;32.30;;;;;;5025538;28;20440;-83
2022/06/02 12:07:51;;;;;;;5.50;1.47;;;35.20;31.60;;;;;;5006610;28;20433;-83
2022/06/02 12:10:59;;;;;;;1.33;1.13;;;35.00;31.80;;;;;;4998304;28;20449;-80
2022/06/02 12:13:40;;;;;;;2.37;1.30;;;34.40;31.60;;;;;;5008514;28;20456;-81
2022/06/02 12:16:34;;;;;;;2.30;1.40;;;34.20;31.90;;;;;;5006655;28;20480;-83
2022/06/02 12:19:25;;;;;;;2.10;1.23;;;34.70;32.50;;;;;;4988947;28;20464;-83
2022/06/02 12:22:00;;;;;;;1.83;1.20;;;34.80;32.60;;;;;;5007404;28;20458;-84
2022/06/02 12:24:49;;;;;;;1.83;1.17;;;34.90;32.40;;;;;;5006935;28;20445;-84
2022/06/02 12:27:47;;;;;;;4.47;1.33;;;34.90;32.40;;;;;;5007339;28;20465;-84
2022/06/02 12:30:24;;;;;;;4.13;1.60;;;35.00;32.50;;;;;;5005979;28;20516;-83
2022/06/02 12:33:14;;;;;;;2.13;1.23;;;35.00;32.30;;;;;;5005737;28;20445;-83
2022/06/02 12:36:00;;;;;;;2.57;1.40;;;35.10;32.10;;;;;;5006861;28;20441;-83
2022/06/02 12:39:02;;;;;;;2.07;1.40;;;35.20;32.10;;;;;;5007376;28;20473;-83
2022/06/02 12:41:48;;;;;;;1.73;1.40;;;35.30;32.10;;;;;;4999061;28;20881;-84
2022/06/02 12:44:47;;;;;;;1.47;1.20;;;34.90;31.10;;;;;;5007138;28;20437;-82
2022/06/02 12:47:39;;;;;;;2.07;1.30;;;34.30;31.80;;;;;;5007184;28;20458;-84
2022/06/02 12:50:29;;;;;;;1.20;1.10;;;34.30;32.50;;;;;;5002345;28;20509;-83
2022/06/02 12:53:36;;;;;;;5.10;1.23;;;34.70;32.50;;;;;;5008253;28;20453;-83
2022/06/02 12:56:27;;;;;;;1.83;1.10;;;34.90;32.20;;;;;;5005490;28;20807;-83
2022/06/02 12:59:13;;;;;;;2.40;1.20;;;35.20;31.90;;;;;;5019486;28;20523;-84
2022/06/02 13:02:07;;;;;;;1.50;1.40;;;34.50;31.80;;;;;;5030988;28;20444;-83
2022/06/02 13:05:18;;;;;;;2.17;1.30;;;34.60;32.60;;;;;;5031252;28;20421;-83
2022/06/02 13:08:40;;;;;;;2.83;1.20;;;34.70;32.40;;;;;;5034919;28;20444;-84
2022/06/02 13:11:43;;;;;;;2.37;1.13;;;35.00;32.00;;;;;;5034017;28;20537;-84
2022/06/02 13:14:44;;;;;;;2.93;1.63;;;35.20;31.80;;;;;;5034703;28;20448;-84
2022/06/02 13:17:27;;;;;;;2.23;1.10;;;35.40;31.30;;;;;;5026895;28;20471;-84
2022/06/02 13:24:03;;;;;;;1.47;1.10;;;35.30;31.80;;;;;;5002601;28;20838;-83
2022/06/02 13:27:03;;;;;;;3.13;1.60;;;35.40;31.60;;;;;;5000916;28;20477;-84
2022/06/02 13:30:16;;;;;;;2.43;1.37;;;35.00;31.20;;;;;;5000164;28;20438;-84
2022/06/02 13:33:08;;;;;;;1.40;1.30;;;34.70;31.80;;;;;;4972961;28;20453;-83
2022/06/02 13:36:09;;;;;;;2.50;1.30;;;34.60;32.50;;;;;;4990451;28;20508;-84
2022/06/02 13:38:56;;;;;;;2.60;1.20;;;34.60;32.20;;;;;;5023412;28;20497;-83
2022/06/02 13:45:30;;;;;;;1.77;1.40;;;34.40;32.30;;;;;;5038650;28;20399;-83
2022/06/02 13:48:34;;;;;;;1.87;1.60;;;34.30;32.50;;;;;;5040129;28;20435;-84
2022/06/02 14:29:13;;;;;;;1.47;1.20;;;33.20;33.40;;;;;;4998654;28;20412;-84
2022/06/02 14:31:49;;;;;;;1.20;1.20;;;33.20;33.90;;;;;;5012742;28;20468;-84
2022/06/02 14:34:25;;;;;;;1.83;1.10;;;33.00;33.60;;;;;;5022615;28;20490;-83
2022/06/02 14:36:56;;;;;;;1.70;1.60;;;32.90;33.80;;;;;;5016740;28;20444;-82
2022/06/02 14:39:31;;;;;;;1.30;1.20;;;32.80;34.00;;;;;;5016608;28;20444;-83
2022/06/02 14:43:03;;;;;;;1.10;1.10;;;32.60;34.10;;;;;;5016996;28;20469;-83
2022/06/02 14:45:17;;;;;;;1.73;1.37;;;32.50;34.30;;;;;;5016857;28;20464;-83
2022/06/02 14:47:47;;;;;;;3.13;1.53;;;32.40;34.40;;;;;;5018581;28;20803;-83
2022/06/02 14:50:36;;;;;;;1.47;1.30;;;32.50;34.40;;;;;;5028784;28;20436;-81
2022/06/02 14:53:18;;;;;;;1.30;1.20;;;32.40;34.20;;;;;;5036065;28;20510;-83
2022/06/02 14:55:51;;;;;;;1.43;1.30;;;32.40;34.20;;;;;;5035403;28;20471;-84
2022/06/02 14:58:25;;;;;;;2.23;1.20;;;32.40;34.30;;;;;;5035828;28;20518;-83
2022/06/02 15:01:12;;;;;;;2.40;1.27;;;32.40;34.30;;;;;;5035731;28;20498;-83
2022/06/02 15:04:09;;;;;;;4.53;1.40;;;32.40;34.50;;;;;;5035540;28;20451;-83
2022/06/02 15:06:51;;;;;;;1.07;1.07;;;32.30;34.50;;;;;;5022925;28;20514;-83
2022/06/02 15:09:44;;;;;;;1.30;1.20;;;32.20;34.50;;;;;;5021775;28;20491;-83
2022/06/02 15:12:48;;;;;;;2.50;1.30;;;32.20;34.60;;;;;;5016948;28;20468;-83
2022/06/02 15:15:34;;;;;;;1.10;1.10;;;32.10;34.60;;;;;;4992846;28;20482;-82
2022/06/02 15:18:29;;;;;;;1.83;1.13;;;32.00;34.60;;;;;;5022525;28;20479;-82
2022/06/02 15:21:01;;;;;;;3.33;1.27;;;31.90;34.70;;;;;;5022005;28;20495;-80
2022/06/02 15:24:01;;;;;;;1.40;1.30;;;31.80;34.80;;;;;;5021321;28;20455;-83
2022/06/02 15:26:40;;;;;;;1.70;1.30;;;31.70;35.00;;;;;;5036912;28;20477;-83
2022/06/02 15:29:17;;;;;;;1.27;1.20;;;31.60;35.10;;;;;;5040255;28;20443;-83
2022/06/02 15:31:52;;;;;;;1.10;1.10;;;31.60;35.20;;;;;;5038828;28;20462;-83
2022/06/02 15:34:53;;;;;;;2.00;1.07;;;31.50;35.20;;;;;;5045954;28;20471;-82
2022/06/02 15:37:46;;;;;;;1.40;1.30;;;31.40;35.10;;;;;;4998228;28;20466;-82
2022/06/02 15:40:54;;;;;;;2.60;1.10;;;31.40;35.20;;;;;;5029913;28;20463;-82
2022/06/02 15:43:36;;;;;;;2.80;1.37;;;31.40;35.30;;;;;;4923923;29;20460;-81
2022/06/02 15:46:23;;;;;;;3.80;1.20;;;31.30;35.20;;;;;;4923986;29;20449;-82
2022/06/02 15:49:20;;;;;;;1.73;1.63;;;31.30;35.40;;;;;;4978307;28;20460;-82
2022/06/02 15:52:09;;;;;;;1.00;0.90;;;31.10;35.30;;;;;;5004596;28;20484;-83
2022/06/02 15:54:55;;;;;;;1.40;1.30;;;31.10;35.50;;;;;;5009108;28;20491;-82
2022/06/02 15:57:47;;;;;;;1.53;1.40;;;31.00;35.50;;;;;;5027559;28;20447;-82
2022/06/02 16:00:32;;;;;;;1.10;1.10;;;31.00;35.70;;;;;;5023140;28;20511;-82
2022/06/02 16:03:53;;;;;;;2.80;1.47;;;30.90;35.80;;;;;;5023019;28;20448;-82
2022/06/02 16:06:37;;;;;;;1.00;1.00;;;30.80;35.80;;;;;;4953243;28;20464;-82
2022/06/02 16:25:52;;;;;;;5.83;1.40;;;30.60;36.10;;;;;;5082041;27;1237049;-82
2022/06/02 16:28:39;;;;;;;1.53;1.43;;;30.40;36.20;;;;;;5092831;28;20234;-82
2022/06/02 16:31:17;;;;;;;1.47;1.37;;;30.30;36.30;;;;;;5121643;28;20461;-82
2022/06/02 16:34:01;;;;;;;1.63;1.17;;;30.30;36.30;;;;;;5099154;28;20518;-82
2022/06/02 16:36:53;;;;;;;2.83;1.50;;;29.10;32.90;;;;;;5099005;28;20440;-82
2022/06/02 16:39:33;;;;;;;1.03;1.03;;;27.50;34.00;;;;;;5096964;28;20472;-84
2022/06/02 16:42:58;;;;;;;2.20;1.50;;;25.60;35.80;;;;;;5095202;28;20547;-78
2022/06/02 16:46:11;;;;;;;1.63;1.30;;;25.50;35.70;;;;;;5000796;28;20443;-76
2022/06/02 16:48:44;;;;;;;1.93;1.60;;;25.50;35.90;;;;;;5062674;28;20491;-78
2022/06/02 16:51:27;;;;;;;3.30;0.90;;;25.80;36.10;;;;;;5094897;28;20467;-75